Flight Track Log - Related Links

Times and Time Zones

All times are in EDT time to prevent confusion due to time zone crossing. See the N5217C flight status page for this flight to view local times or setup timezone preferences in your user account.

Time Position Orientation Groundspeed Altitude Reporting Facility
EDT Latitude Longitude Course Direction KTS MPH feet Rate Location/Type
Fri 05:41:20 PM 35.0061 -81.9772 342° North 92 106 4,100  Level Atlanta Center
Fri 05:42:20 PM 35.0253 -81.9894 332° Northwest 97 112 4,500 450 Climbing Atlanta Center
Fri 05:43:20 PM 35.0483 -81.9989 341° North 87 100 5,000 400 Climbing Atlanta Center
Fri 05:44:00 PM 35.0556 -82.0241 345° North  Level FlightAware Approximate
Fri 05:44:20 PM 35.0733 -82.0058 347° North 98 113 5,300  Level Atlanta Center
Fri 05:45:00 PM 35.0878 -82.0351 342° North  Level FlightAware Approximate
Fri 05:45:20 PM 35.0922 -82.0131 343° North 90 104 5,800  Level Atlanta Center
Fri 05:46:00 PM 35.1196 -82.0479 342° North  Level FlightAware Approximate
Fri 05:46:20 PM 35.1175 -82.0278 335° Northwest 99 114 6,300  Level Atlanta Center
Fri 05:48:00 PM 35.1643 -82.0648 327° Northwest  Level FlightAware Approximate
Fri 05:55:00 PM 35.3700 -82.1847 338° Northwest  Level FlightAware Approximate
Fri 05:56:00 PM 35.4010 -82.2002 338° Northwest  Level FlightAware Approximate
Fri 05:57:00 PM 35.4320 -82.2156 338° Northwest  Level FlightAware Approximate
Fri 05:58:00 PM 35.4629 -82.2311 338° Northwest  Level FlightAware Approximate
Fri 05:59:00 PM 35.4939 -82.2466 338° Northwest  Level FlightAware Approximate
Fri 06:00:00 PM 35.5249 -82.2621 338° Northwest  Level FlightAware Approximate
Fri 06:01:00 PM 35.5559 -82.2776 338° Northwest  Level FlightAware Approximate
Fri 06:02:00 PM 35.5868 -82.2932 338° Northwest  Level FlightAware Approximate
Fri 06:03:00 PM 35.6178 -82.3087 338° Northwest  Level FlightAware Approximate
Fri 06:05:00 PM 35.6797 -82.3398 338° Northwest  Level FlightAware Approximate
Fri 06:06:00 PM 35.7111 -82.3537 345° North  Level FlightAware Approximate
Fri 06:06:25 PM 35.7578 -82.3547 338° Northwest 152 175 10,100  Level Indianapolis Center
Fri 06:07:00 PM 35.7434 -82.3645 345° North  Level FlightAware Approximate
Fri 06:07:27 PM 35.7953 -82.3736 338° Northwest 148 170 10,000  Level Indianapolis Center
Fri 06:08:00 PM 35.7747 -82.3790 338° Northwest  Level FlightAware Approximate
Fri 06:08:29 PM 35.8311 -82.3925 337° Northwest 142 163 10,000  Level Indianapolis Center
Fri 06:09:00 PM 35.8057 -82.3944 338° Northwest  Level FlightAware Approximate
Fri 06:09:31 PM 35.8667 -82.4094 339° North 138 159 10,100  Level Indianapolis Center
Fri 06:10:00 PM 35.8367 -82.4099 338° Northwest  Level FlightAware Approximate
Fri 06:10:33 PM 35.9028 -82.4281 337° Northwest 140 161 10,100  Level Indianapolis Center
Fri 06:11:00 PM 35.8677 -82.4254 338° Northwest  Level FlightAware Approximate
Fri 06:11:35 PM 35.9436 -82.4486 338° Northwest 137 158 10,000  Level Indianapolis Center
Fri 06:12:37 PM 35.9803 -82.4678 337° Northwest 141 162 10,000  Level Indianapolis Center
Fri 06:13:39 PM 36.0147 -82.4858 337° Northwest 136 157 10,000  Level Indianapolis Center
Fri 06:14:41 PM 36.0467 -82.5039 335° Northwest 129 148 10,000  Level Indianapolis Center
Fri 06:15:43 PM 36.0836 -82.5206 340° North 137 158 10,000  Level Indianapolis Center
Fri 06:16:45 PM 36.1222 -82.5425 335° Northwest 131 151 10,000  Level Indianapolis Center
Fri 06:17:47 PM 36.1572 -82.5594 339° North 133 153 10,000  Level Indianapolis Center
Fri 06:18:49 PM 36.1917 -82.5786 336° Northwest 135 155 10,000 -48 Level Indianapolis Center
Fri 06:19:51 PM 36.2264 -82.5964 338° Northwest 135 155 9,900  Descending Indianapolis Center
Fri 06:20:53 PM 36.2589 -82.6142 336° Northwest 129 148 10,000 48 Climbing Indianapolis Center
Fri 06:21:55 PM 36.2936 -82.6311 339° North 132 152 10,000  Level Indianapolis Center
Fri 06:22:57 PM 36.3342 -82.6528 337° Northwest 135 155 10,000  Level Indianapolis Center
Fri 06:24:00 PM 36.3692 -82.6706 338° Northwest 135 155 10,000  Level Indianapolis Center
Fri 06:25:02 PM 36.4039 -82.6889 337° Northwest 135 155 10,000  Level Indianapolis Center
Fri 06:26:04 PM 36.4389 -82.7061 338° Northwest 135 155 10,000  Level Indianapolis Center
Fri 06:27:06 PM 36.4733 -82.7242 337° Northwest 135 155 10,000  Level Indianapolis Center
Fri 06:28:08 PM 36.5139 -82.7461 336° Northwest 136 157 10,000  Level Indianapolis Center
Fri 06:29:10 PM 36.5489 -82.7639 338° Northwest 135 155 10,000  Level Indianapolis Center
Fri 06:30:12 PM 36.5817 -82.7811 337° Northwest 129 148 10,000  Level Indianapolis Center
Fri 06:31:14 PM 36.6158 -82.7989 337° Northwest 132 152 10,000  Level Indianapolis Center
Fri 06:32:16 PM 36.6494 -82.8172 336° Northwest 131 151 10,000  Level Indianapolis Center
Fri 06:33:18 PM 36.6836 -82.8350 337° Northwest 132 152 10,000  Level Indianapolis Center
Fri 06:34:20 PM 36.7250 -82.8553 339° North 135 155 10,000  Level Indianapolis Center
Fri 06:35:22 PM 36.7597 -82.8744 336° Northwest 137 158 10,000  Level Indianapolis Center
Fri 06:36:24 PM 36.7939 -82.8931 336° Northwest 133 153 10,000 48 Level Indianapolis Center
Fri 06:37:26 PM 36.8281 -82.9111 337° Northwest 133 153 10,100 242 Climbing Indianapolis Center
Fri 06:38:28 PM 36.8592 -82.9281 336° Northwest 122 140 10,500 339 Climbing Indianapolis Center
Fri 06:39:30 PM 36.8892 -82.9436 337° Northwest 116 133 10,800 290 Climbing Indianapolis Center
Fri 06:40:32 PM 36.9192 -82.9592 337° Northwest 115 132 11,100 387 Climbing Indianapolis Center
Fri 06:41:34 PM 36.9503 -82.9764 336° Northwest 106 122 11,600 387 Climbing Indianapolis Center
Fri 06:42:36 PM 36.9758 -82.9906 336° Northwest 101 116 11,900 194 Climbing Indianapolis Center
Fri 06:43:38 PM 37.0042 -83.0044 339° North 105 121 12,000 48 Climbing Indianapolis Center
Fri 06:44:40 PM 37.0356 -83.0217 336° Northwest 118 136 12,000  Level Indianapolis Center
Fri 06:45:42 PM 37.0697 -83.0386 338° Northwest 127 146 12,000  Level Indianapolis Center
Fri 06:46:44 PM 37.1017 -83.0564 336° Northwest 128 147 12,000  Level Indianapolis Center
Fri 06:47:46 PM 37.1408 -83.0769 337° Northwest 128 147 12,000  Level Indianapolis Center
Fri 06:48:48 PM 37.1747 -83.0950 337° Northwest 132 152 12,000  Level Indianapolis Center
Fri 06:49:50 PM 37.2092 -83.1133 337° Northwest 133 153 12,000  Level Indianapolis Center
Fri 06:50:52 PM 37.2425 -83.1306 338° Northwest 129 148 12,000  Level Indianapolis Center
Fri 06:51:54 PM 37.2775 -83.1486 338° Northwest 134 154 12,000  Level Indianapolis Center
Fri 06:52:56 PM 37.3119 -83.1683 336° Northwest 136 157 12,000  Level Indianapolis Center
Fri 06:53:58 PM 37.3528 -83.1894 338° Northwest 135 155 12,000  Level Indianapolis Center
Fri 06:55:00 PM 37.3872 -83.2081 337° Northwest 135 155 12,000  Level Indianapolis Center
Fri 06:56:02 PM 37.4217 -83.2272 336° Northwest 135 155 12,000  Level Indianapolis Center
Fri 06:57:04 PM 37.4542 -83.2442 338° Northwest 128 147 12,000  Level Indianapolis Center
Fri 06:58:06 PM 37.4889 -83.2636 336° Northwest 134 154 12,000  Level Indianapolis Center
Fri 06:59:08 PM 37.5289 -83.2858 336° Northwest 134 154 12,000  Level Indianapolis Center
Fri 07:00:10 PM 37.5642 -83.3033 339° North 135 155 12,000  Level Indianapolis Center
Fri 07:01:12 PM 37.5981 -83.3236 335° Northwest 135 155 12,000  Level Indianapolis Center
Fri 07:02:14 PM 37.6328 -83.3414 338° Northwest 134 154 12,000  Level Indianapolis Center
Fri 07:03:16 PM 37.6656 -83.3589 337° Northwest 128 147 12,000  Level Indianapolis Center
Fri 07:04:18 PM 37.7000 -83.3778 337° Northwest 134 154 12,000  Level Indianapolis Center
Fri 07:05:20 PM 37.7406 -83.3992 337° Northwest 135 155 12,000  Level Indianapolis Center
Fri 07:06:22 PM 37.7747 -83.4186 336° Northwest 135 155 12,000  Level Indianapolis Center
Fri 07:07:24 PM 37.8100 -83.4361 339° North 135 155 12,000  Level Indianapolis Center
Fri 07:08:26 PM 37.8458 -83.4575 335° Northwest 141 162 12,000  Level Indianapolis Center
Fri 07:09:27 PM 37.8806 -83.4758 337° Northwest 136 157 12,000  Level Indianapolis Center
Fri 07:10:29 PM 37.9169 -83.4958 337° Northwest 141 162 12,000 -48 Level Indianapolis Center
Fri 07:11:31 PM 37.9583 -83.5178 337° Northwest 138 159 11,900  Descending Indianapolis Center
Fri 07:12:33 PM 37.9939 -83.5364 338° Northwest 138 159 12,000 48 Climbing Indianapolis Center
Fri 07:13:35 PM 38.0292 -83.5564 336° Northwest 137 158 12,000  Level Indianapolis Center
Fri 07:14:37 PM 38.0656 -83.5758 337° Northwest 141 162 12,000  Level Indianapolis Center
Fri 07:15:39 PM 38.1017 -83.5942 338° Northwest 140 161 12,000  Level Indianapolis Center
Fri 07:16:41 PM 38.1375 -83.6142 336° Northwest 141 162 12,000  Level Indianapolis Center
Fri 07:17:43 PM 38.1797 -83.6378 336° Northwest 143 165 12,000  Level Indianapolis Center
Fri 07:18:45 PM 38.2161 -83.6578 337° Northwest 143 165 12,000  Level Indianapolis Center
Fri 07:19:47 PM 38.2519 -83.6789 335° Northwest 143 165 12,000  Level Indianapolis Center
Fri 07:20:48 PM 38.2883 -83.6978 338° Northwest 142 163 12,000  Level Indianapolis Center
Fri 07:21:50 PM 38.3228 -83.7183 335° Northwest 138 159 12,000  Level Indianapolis Center
Fri 07:22:52 PM 38.3606 -83.7381 338° Northwest 142 163 12,000  Level Indianapolis Center
Fri 07:23:54 PM 38.4031 -83.7611 337° Northwest 141 162 12,000  Level Indianapolis Center
Fri 07:24:56 PM 38.4403 -83.7825 336° Northwest 146 168 12,000  Level Indianapolis Center
Fri 07:25:58 PM 38.4756 -83.8031 335° Northwest 141 162 12,000  Level Indianapolis Center
Fri 07:27:00 PM 38.5119 -83.8225 337° Northwest 141 162 12,000  Level Indianapolis Center
Fri 07:28:01 PM 38.5483 -83.8425 337° Northwest 142 163 12,000  Level Indianapolis Center
Fri 07:29:03 PM 38.5839 -83.8625 336° Northwest 140 161 12,000  Level Indianapolis Center
Fri 07:30:05 PM 38.6292 -83.8736 349° North 141 162 12,000 -97 Level Indianapolis Center
Fri 07:31:07 PM 38.6653 -83.8758 357° North 139 160 11,800 -435 Descending Indianapolis Center
Fri 07:32:09 PM 38.7106 -83.8825 353° North 159 183 11,100 -585 Descending Indianapolis Center
Fri 07:33:10 PM 38.7567 -83.8883 354° North 165 190 10,600 -634 Descending Indianapolis Center
Fri 07:34:12 PM 38.8039 -83.8961 353° North 169 194 9,800 -774 Descending Indianapolis Center
Fri 07:35:14 PM 38.8525 -83.8872 North 173 199 9,000 -919 Descending Indianapolis Center
Fri 07:36:16 PM 38.9097 -83.8878 360° North 174 200 7,900 -919 Descending Indianapolis Center
Fri 07:37:18 PM 38.9586 -83.9050 345° North 176 203 7,100 -634 Descending Indianapolis Center
Fri 07:38:19 PM 39.0003 -83.9303 335° Northwest 170 196 6,600 -556 Descending Indianapolis Center
Fri 07:39:06 PM 39.0300 -83.9608 321° Northwest 170 196 6,100 -581 Descending Indianapolis Center
Fri 07:39:21 PM 39.0381 -83.9642 342° North 164 189 6,000 -623 Descending Indianapolis Center
Fri 07:40:23 PM 39.0767 -83.9992 325° Northwest 168 193 5,300 -504 Descending Indianapolis Center
Fri 07:41:20 PM 39.1144 -84.0333 325° Northwest 164 189 5,000 -161 Descending Indianapolis Center
Fri 07:42:15 PM 39.1439 -84.0614 324° Northwest 146 168 5,000  Level Indianapolis Center
Fri 07:43:16 PM 39.1753 -84.0869 328° Northwest 135 155 5,000  Level Indianapolis Center
Fri 07:44:17 PM 39.2106 -84.1186 325° Northwest 138 159 5,000  Level Indianapolis Center
Fri 07:45:18 PM 39.2419 -84.1442 328° Northwest 138 159 5,000  Level Indianapolis Center
Fri 07:46:19 PM 39.2733 -84.1725 325° Northwest 139 160 5,000  Level Indianapolis Center
Fri 07:46:34 PM 39.2817 -84.1794 327° Northwest 138 159 5,000  Level Indianapolis Center
Fri 07:47:14 PM 39.3047 -84.1983 328° Northwest 140 161 5,000  Level Indianapolis Center
Fri 07:47:36 PM 39.3150 -84.2072 326° Northwest 139 160 5,000  Level Indianapolis Center
Fri 07:48:15 PM 39.3361 -84.2267 325° Northwest 143 165 5,000  Level Indianapolis Center
Fri 07:48:38 PM 39.3489 -84.2364 330° Northwest 141 162 5,000  Level Indianapolis Center
Fri 07:49:16 PM 39.3694 -84.2553 325° Northwest 144 166 5,000  Level Indianapolis Center
Fri 07:49:40 PM 39.3819 -84.2656 328° Northwest 142 163 5,000 -393 Level Indianapolis Center
Fri 07:50:17 PM 39.4025 -84.2867 322° Northwest 145 167 4,600 -590 Descending Indianapolis Center
Fri 07:50:41 PM 39.4164 -84.2953 334° Northwest 144 166 4,400 -600 Descending Indianapolis Center
Fri 07:51:17 PM 39.4439 -84.3192 326° Northwest 163 188 4,000 -581 Descending Indianapolis Center
Fri 07:51:43 PM 39.4533 -84.3300 318° Northwest 152 175 3,800 -205 Descending Indianapolis Center
Fri 07:52:45 PM 39.4900 -84.3744 317° Northwest 155 178 3,700 -97 Descending Indianapolis Center
Fri 07:54:00 PM 39.5167 -84.3833 327° Northwest  Level FlightAware Approximate
Fri 08:01:00 PM 39.5318 -84.3964 327° Northwest  Level Estimated
Fri 08:02:00 PM 39.5318 -84.3964 327° Northwest  Level Estimated

Login

Don't have an account? Register now (free) for customized features, flight alerts, and more!